< < Back
Terminal Aerodrome Forecast


Current Version              Previous Versions:   1  2  3  4  5  6  7  8  9  

Terminal Aerodrome Forecast

933
FTUS44 KMOB 281723
TAFMOB
TAF
KMOB 281723Z 2818/2918 16009KT P6SM VCSH SCT040 BKN150
     FM290100 VRB03KT P6SM FEW050 SCT150=

Latest METAR

195
SAUS80 KWBC 282200
MTRMOB
METAR KMOB 282156Z 15006KT 10SM SCT043 BKN050 BKN070 28/19 A3004 RMK AO2
SLP171 T02780194


USA.gov is the U.S. government's official web portal to all federal, state and local government web resources and services.